createdAt,value
2022-10-03T00:00:23.957Z,96.97
2022-10-03T00:01:23.991Z,97.08
2022-10-03T00:02:23.977Z,97.08
2022-10-03T00:03:23.941Z,97.17
2022-10-03T00:04:23.916Z,97.17
2022-10-03T00:05:23.916Z,97.17
2022-10-03T00:06:23.894Z,97.17
2022-10-03T00:07:23.902Z,97.28
2022-10-03T00:08:23.879Z,97.28
2022-10-03T00:09:23.873Z,97.17
2022-10-03T00:10:23.854Z,97.28
2022-10-03T00:11:23.835Z,97.38
2022-10-03T00:12:23.822Z,97.49
2022-10-03T00:13:23.827Z,97.58
2022-10-03T00:14:23.821Z,97.69
2022-10-03T00:15:23.806Z,97.58
2022-10-03T00:16:23.855Z,97.58
2022-10-03T00:17:23.769Z,97.58
2022-10-03T00:18:23.774Z,97.58
2022-10-03T00:19:23.747Z,97.64
2022-10-03T00:20:23.760Z,97.64
2022-10-03T00:21:23.741Z,97.64
2022-10-03T00:22:23.727Z,97.64
2022-10-03T00:23:23.708Z,97.64
2022-10-03T00:24:23.700Z,97.64
2022-10-03T00:25:23.713Z,97.54
2022-10-03T00:26:23.692Z,97.54
2022-10-03T00:27:23.670Z,97.54
2022-10-03T00:28:23.728Z,97.54
2022-10-03T00:29:23.644Z,97.54
2022-10-03T00:30:23.640Z,97.44
2022-10-03T00:31:23.667Z,97.44
2022-10-03T00:32:23.620Z,97.44
2022-10-03T00:33:23.596Z,97.33
2022-10-03T00:34:23.600Z,97.33
2022-10-03T00:35:23.583Z,97.24
2022-10-03T00:36:23.577Z,97.24
2022-10-03T00:37:23.564Z,97.24
2022-10-03T00:38:23.561Z,97.13
2022-10-03T00:39:23.531Z,97.03
2022-10-03T00:40:23.536Z,97.03
2022-10-03T00:41:23.509Z,97.03
2022-10-03T00:42:23.505Z,97.03
2022-10-03T00:43:23.504Z,96.88
2022-10-03T00:44:23.489Z,96.88
2022-10-03T00:45:23.468Z,97.08
2022-10-03T00:46:23.508Z,96.98
2022-10-03T00:47:23.450Z,96.78
2022-10-03T00:48:23.452Z,96.43
2022-10-03T00:49:23.434Z,96.22
2022-10-03T00:50:23.421Z,96.02
2022-10-03T00:51:23.411Z,95.92
2022-10-03T00:52:23.403Z,95.81
2022-10-03T00:53:23.381Z,95.61
2022-10-03T00:54:23.390Z,95.51
2022-10-03T00:55:23.365Z,95.41
2022-10-03T00:56:23.362Z,95.41
2022-10-03T00:57:23.346Z,95.41
2022-10-03T00:58:23.337Z,95.41
2022-10-03T00:59:23.326Z,95.41
2022-10-03T01:00:23.331Z,95.51
2022-10-03T01:01:23.383Z,95.41
2022-10-03T01:02:23.406Z,95.31
2022-10-03T01:03:23.278Z,95.10
2022-10-03T01:04:23.274Z,95.10
2022-10-03T01:05:23.261Z,95.00
2022-10-03T01:06:23.245Z,95.10
2022-10-03T01:07:23.247Z,95.00
2022-10-03T01:08:23.227Z,95.00
2022-10-03T01:09:23.234Z,94.90
2022-10-03T01:10:23.219Z,94.90
2022-10-03T01:11:23.219Z,94.79
2022-10-03T01:12:23.202Z,94.90
2022-10-03T01:13:23.206Z,94.90
2022-10-03T01:14:23.167Z,94.90
2022-10-03T01:15:23.147Z,95.00
2022-10-03T01:16:23.186Z,95.00
2022-10-03T01:17:23.159Z,95.10
2022-10-03T01:18:23.120Z,95.10
2022-10-03T01:19:23.103Z,95.20
2022-10-03T01:20:23.094Z,95.20
2022-10-03T01:21:23.089Z,95.20
2022-10-03T01:22:23.111Z,95.20
2022-10-03T01:23:23.064Z,95.25
2022-10-03T01:24:23.060Z,95.35
2022-10-03T01:25:23.038Z,95.35
2022-10-03T01:26:23.037Z,95.45
2022-10-03T01:27:23.022Z,95.45
2022-10-03T01:28:23.149Z,95.45
2022-10-03T01:29:22.994Z,95.56
2022-10-03T01:30:22.997Z,95.56
2022-10-03T01:31:23.069Z,95.56
2022-10-03T01:32:22.974Z,95.56
2022-10-03T01:33:22.969Z,95.56
2022-10-03T01:34:22.962Z,95.56
2022-10-03T01:35:22.932Z,95.56
2022-10-03T01:36:22.938Z,95.56
2022-10-03T01:37:22.918Z,95.65
2022-10-03T01:38:22.905Z,95.65
2022-10-03T01:39:22.900Z,95.65
2022-10-03T01:40:22.882Z,95.65
2022-10-03T01:41:22.878Z,95.56
2022-10-03T01:42:22.856Z,95.45
2022-10-03T01:43:22.852Z,95.45
2022-10-03T01:44:22.851Z,95.45
2022-10-03T01:45:22.841Z,95.45
2022-10-03T01:46:22.906Z,95.45
2022-10-03T01:47:22.810Z,95.45
2022-10-03T01:48:22.804Z,95.56
2022-10-03T01:49:22.783Z,95.56
2022-10-03T01:50:22.789Z,95.56
2022-10-03T01:51:22.782Z,95.56
2022-10-03T01:52:22.748Z,95.56
2022-10-03T01:53:22.751Z,95.56
2022-10-03T01:54:22.733Z,95.56
2022-10-03T01:55:22.742Z,95.45
2022-10-03T01:56:22.708Z,95.35
2022-10-03T01:57:22.709Z,95.35
2022-10-03T01:58:22.689Z,95.35
2022-10-03T01:59:22.682Z,95.35
2022-10-03T02:00:22.678Z,95.35
2022-10-03T02:01:22.728Z,95.25
2022-10-03T02:02:22.686Z,95.25
2022-10-03T02:03:22.634Z,95.25
2022-10-03T02:04:22.627Z,95.25
2022-10-03T02:05:22.621Z,95.25
2022-10-03T02:06:22.620Z,95.15
2022-10-03T02:07:22.595Z,95.15
2022-10-03T02:08:22.580Z,95.15
2022-10-03T02:09:22.582Z,95.15
2022-10-03T02:10:22.554Z,95.15
2022-10-03T02:11:22.563Z,95.15
2022-10-03T02:12:22.548Z,95.15
2022-10-03T02:13:22.529Z,95.15
2022-10-03T02:14:22.528Z,95.15
2022-10-03T02:15:22.509Z,95.15
2022-10-03T02:16:22.621Z,95.15
2022-10-03T02:17:22.507Z,95.15
2022-10-03T02:18:22.487Z,95.15
2022-10-03T02:19:22.468Z,95.15
2022-10-03T02:20:22.444Z,95.00
2022-10-03T02:21:22.444Z,94.90
2022-10-03T02:22:22.436Z,94.90
2022-10-03T02:23:22.430Z,94.90
2022-10-03T02:24:22.416Z,94.79
2022-10-03T02:25:22.395Z,94.79
2022-10-03T02:26:22.385Z,94.79
2022-10-03T02:27:22.372Z,94.79
2022-10-03T02:28:22.468Z,94.79
2022-10-03T02:29:22.347Z,94.70
2022-10-03T02:30:22.343Z,94.70
2022-10-03T02:31:22.369Z,94.70
2022-10-03T02:32:22.315Z,94.70
2022-10-03T02:33:22.325Z,94.70
2022-10-03T02:34:22.290Z,94.70
2022-10-03T02:35:22.293Z,94.59
2022-10-03T02:36:22.269Z,94.59
2022-10-03T02:37:22.269Z,94.59
2022-10-03T02:38:22.246Z,94.59
2022-10-03T02:39:22.258Z,94.49
2022-10-03T02:40:22.229Z,94.38
2022-10-03T02:41:22.244Z,94.18
2022-10-03T02:42:22.209Z,94.18
2022-10-03T02:43:22.197Z,93.88
2022-10-03T02:44:22.203Z,93.88
2022-10-03T02:45:22.292Z,93.98
2022-10-03T02:46:22.166Z,93.98
2022-10-03T02:47:22.150Z,93.98
2022-10-03T02:48:37.391Z,93.88
2022-10-03T02:49:22.135Z,93.98
2022-10-03T02:50:22.137Z,93.98
2022-10-03T02:51:22.108Z,93.98
2022-10-03T02:52:22.093Z,93.98
2022-10-03T02:53:22.084Z,93.88
2022-10-03T02:54:22.074Z,93.77
2022-10-03T02:55:22.072Z,93.77
2022-10-03T02:56:22.073Z,93.67
2022-10-03T02:57:22.034Z,93.67
2022-10-03T02:58:22.033Z,93.67
2022-10-03T02:59:22.011Z,93.67
2022-10-03T03:00:22.026Z,93.67
2022-10-03T03:01:22.056Z,93.77
2022-10-03T03:02:22.052Z,93.77
2022-10-03T03:03:21.970Z,93.77
2022-10-03T03:04:21.962Z,93.67
2022-10-03T03:05:21.951Z,93.67
2022-10-03T03:06:21.939Z,93.57
2022-10-03T03:07:21.940Z,93.57
2022-10-03T03:08:21.931Z,93.47
2022-10-03T03:09:21.911Z,93.37
2022-10-03T03:10:21.899Z,93.26
2022-10-03T03:11:21.897Z,93.37
2022-10-03T03:12:21.880Z,93.37
2022-10-03T03:13:21.868Z,93.26
2022-10-03T03:14:21.853Z,93.26
2022-10-03T03:15:21.835Z,93.26
2022-10-03T03:16:21.906Z,93.26
2022-10-03T03:17:21.820Z,93.16
2022-10-03T03:18:21.816Z,93.16
2022-10-03T03:19:21.808Z,93.26
2022-10-03T03:20:21.791Z,93.16
2022-10-03T03:21:21.771Z,93.16
2022-10-03T03:22:21.765Z,93.06
2022-10-03T03:23:21.746Z,93.06
2022-10-03T03:24:21.756Z,93.06
2022-10-03T03:25:21.734Z,93.06
2022-10-03T03:26:21.721Z,93.06
2022-10-03T03:27:21.716Z,93.06
2022-10-03T03:28:21.795Z,93.06
2022-10-03T03:29:21.685Z,93.06
2022-10-03T03:30:21.685Z,93.16
2022-10-03T03:31:21.737Z,93.16
2022-10-03T03:32:21.656Z,93.26
2022-10-03T03:33:21.647Z,93.37
2022-10-03T03:34:21.633Z,93.47
2022-10-03T03:35:21.634Z,93.57
2022-10-03T03:36:21.629Z,93.57
2022-10-03T03:37:21.593Z,93.57
2022-10-03T03:38:21.588Z,93.67
2022-10-03T03:39:21.572Z,93.67
2022-10-03T03:40:21.568Z,93.67
2022-10-03T03:41:21.556Z,93.77
2022-10-03T03:42:21.560Z,93.77
2022-10-03T03:43:21.535Z,93.77
2022-10-03T03:44:21.521Z,93.88
2022-10-03T03:45:21.592Z,93.88
2022-10-03T03:46:21.494Z,93.88
2022-10-03T03:47:21.498Z,93.98
2022-10-03T03:48:21.479Z,93.98
2022-10-03T03:49:21.464Z,94.08
2022-10-03T03:50:21.455Z,94.08
2022-10-03T03:51:21.440Z,94.08
2022-10-03T03:52:21.446Z,94.18
2022-10-03T03:53:21.434Z,94.18
2022-10-03T03:54:21.407Z,94.18
2022-10-03T03:55:21.409Z,94.08
2022-10-03T03:56:21.393Z,94.08
2022-10-03T03:57:21.381Z,94.08
2022-10-03T03:58:21.380Z,94.08
2022-10-03T03:59:21.371Z,94.08
2022-10-03T04:00:21.355Z,94.18
2022-10-03T04:01:21.469Z,94.18
2022-10-03T04:02:21.400Z,94.18
2022-10-03T04:03:21.317Z,94.18
2022-10-03T04:04:21.342Z,94.18
2022-10-03T04:05:21.290Z,94.18
2022-10-03T04:06:21.290Z,94.08
2022-10-03T04:07:22.079Z,94.08
2022-10-03T04:08:21.262Z,94.08
2022-10-03T04:09:21.261Z,93.98
2022-10-03T04:10:21.251Z,94.08
2022-10-03T04:11:21.257Z,93.98
2022-10-03T04:12:21.218Z,93.98
2022-10-03T04:13:21.212Z,93.98
2022-10-03T04:14:21.191Z,93.88
2022-10-03T04:15:21.201Z,93.88
2022-10-03T04:16:21.199Z,93.88
2022-10-03T04:17:21.161Z,93.88
2022-10-03T04:18:21.169Z,93.88
2022-10-03T04:19:21.140Z,93.77
2022-10-03T04:20:21.140Z,93.77
2022-10-03T04:21:21.135Z,93.77
2022-10-03T04:22:21.114Z,93.67
2022-10-03T04:23:21.102Z,93.67
2022-10-03T04:24:21.100Z,93.67
2022-10-03T04:25:21.071Z,93.77
2022-10-03T04:26:21.078Z,93.77
2022-10-03T04:27:21.061Z,93.77
2022-10-03T04:28:21.121Z,93.77
2022-10-03T04:29:21.029Z,93.77
2022-10-03T04:30:21.030Z,93.77
2022-10-03T04:31:21.033Z,93.77
2022-10-03T04:32:21.007Z,93.77
2022-10-03T04:33:21.009Z,93.77
2022-10-03T04:34:20.980Z,93.88
2022-10-03T04:35:20.970Z,93.88
2022-10-03T04:36:20.954Z,93.88
2022-10-03T04:37:21.018Z,93.77
2022-10-03T04:38:20.945Z,93.77
2022-10-03T04:39:20.937Z,93.67
2022-10-03T04:40:20.946Z,93.67
2022-10-03T04:41:20.899Z,93.67
2022-10-03T04:42:20.903Z,93.67
2022-10-03T04:43:20.875Z,93.67
2022-10-03T04:44:20.885Z,93.67
2022-10-03T04:45:20.855Z,93.57
2022-10-03T04:46:20.899Z,93.57
2022-10-03T04:47:20.838Z,93.47
2022-10-03T04:48:20.827Z,93.57
2022-10-03T04:49:20.825Z,93.57
2022-10-03T04:50:20.818Z,93.57
2022-10-03T04:51:20.797Z,93.57
2022-10-03T04:52:20.781Z,93.57
2022-10-03T04:53:20.779Z,93.37
2022-10-03T04:54:20.763Z,93.16
2022-10-03T04:55:20.764Z,93.16
2022-10-03T04:56:20.767Z,93.16
2022-10-03T04:57:20.723Z,93.16
2022-10-03T04:58:20.726Z,93.16
2022-10-03T04:59:20.711Z,93.06
2022-10-03T05:00:20.724Z,92.96
2022-10-03T05:01:20.806Z,92.96
2022-10-03T05:02:20.784Z,92.96
2022-10-03T05:03:20.680Z,93.06
2022-10-03T05:04:20.656Z,93.06
2022-10-03T05:05:20.670Z,93.06
2022-10-03T05:06:20.641Z,93.16
2022-10-03T05:07:20.633Z,93.16
2022-10-03T05:08:20.612Z,93.16
2022-10-03T05:09:20.598Z,93.16
2022-10-03T05:10:20.593Z,93.16
2022-10-03T05:11:20.579Z,93.16
2022-10-03T05:12:20.589Z,93.16
2022-10-03T05:13:20.548Z,93.26
2022-10-03T05:14:20.553Z,93.26
2022-10-03T05:15:20.535Z,93.26
2022-10-03T05:16:20.585Z,93.37
2022-10-03T05:17:20.775Z,93.37
2022-10-03T05:18:24.642Z,93.47
2022-10-03T05:19:20.488Z,93.47
2022-10-03T05:20:20.476Z,93.47
2022-10-03T05:21:20.466Z,93.47
2022-10-03T05:22:20.484Z,93.47
2022-10-03T05:23:20.466Z,93.47
2022-10-03T05:24:20.444Z,93.57
2022-10-03T05:25:20.419Z,93.57
2022-10-03T05:27:20.401Z,93.67
2022-10-03T05:28:20.488Z,93.57
2022-10-03T05:29:20.395Z,93.57
2022-10-03T05:30:20.373Z,93.57
2022-10-03T05:31:20.439Z,93.57
2022-10-03T05:32:20.341Z,93.47
2022-10-03T05:33:20.332Z,93.37
2022-10-03T05:34:20.352Z,93.16
2022-10-03T05:35:20.313Z,93.16
2022-10-03T05:36:20.308Z,93.16
2022-10-03T05:37:20.281Z,93.16
2022-10-03T05:38:20.287Z,93.16
2022-10-03T05:39:20.261Z,93.16
2022-10-03T05:40:20.273Z,93.16
2022-10-03T05:41:25.144Z,93.06
2022-10-03T05:42:23.936Z,93.06
2022-10-03T05:43:20.218Z,93.06
2022-10-03T05:44:20.212Z,92.96
2022-10-03T05:45:20.212Z,92.96
2022-10-03T05:46:20.258Z,92.96
2022-10-03T05:47:20.183Z,92.96
2022-10-03T05:48:20.169Z,92.96
2022-10-03T05:49:20.156Z,93.06
2022-10-03T05:50:20.157Z,92.96
2022-10-03T05:51:20.136Z,93.06
2022-10-03T05:52:20.132Z,93.06
2022-10-03T05:53:20.110Z,93.06
2022-10-03T05:54:20.111Z,93.06
2022-10-03T05:55:20.102Z,93.06
2022-10-03T05:56:20.096Z,92.96
2022-10-03T05:57:20.071Z,92.96
2022-10-03T05:58:20.050Z,92.96
2022-10-03T05:59:20.044Z,92.96
2022-10-03T06:00:20.045Z,92.96
2022-10-03T06:01:20.018Z,92.96
2022-10-03T06:02:20.230Z,92.96
2022-10-03T06:03:20.039Z,92.96
2022-10-03T06:04:19.994Z,93.06
2022-10-03T06:05:19.972Z,92.86
2022-10-03T06:06:19.975Z,92.86
2022-10-03T06:07:19.962Z,92.86
2022-10-03T06:08:19.950Z,92.96
2022-10-03T06:09:19.939Z,92.76
2022-10-03T06:10:19.927Z,92.86
2022-10-03T06:11:19.921Z,92.86
2022-10-03T06:12:19.996Z,92.76
2022-10-03T06:13:19.915Z,92.76
2022-10-03T06:14:19.879Z,92.76
2022-10-03T06:15:19.875Z,92.76
2022-10-03T06:16:19.969Z,92.76
2022-10-03T06:17:19.855Z,92.76
2022-10-03T06:18:19.868Z,92.65
2022-10-03T06:19:19.831Z,92.55
2022-10-03T06:20:19.820Z,92.45
2022-10-03T06:21:19.796Z,92.55
2022-10-03T06:22:19.796Z,92.55
2022-10-03T06:23:19.774Z,92.65
2022-10-03T06:24:19.797Z,92.65
2022-10-03T06:25:19.761Z,92.76
2022-10-03T06:26:19.754Z,92.76
2022-10-03T06:27:19.743Z,92.86
2022-10-03T06:28:19.894Z,92.86
2022-10-03T06:29:19.710Z,92.81
2022-10-03T06:30:19.718Z,92.81
2022-10-03T06:31:19.733Z,92.81
2022-10-03T06:32:19.677Z,92.71
2022-10-03T06:33:19.681Z,92.71
2022-10-03T06:34:19.662Z,92.71
2022-10-03T06:35:19.828Z,92.71
2022-10-03T06:36:19.652Z,92.61
2022-10-03T06:37:19.628Z,92.61
2022-10-03T06:38:19.612Z,92.61
2022-10-03T06:39:19.612Z,92.41
2022-10-03T06:40:19.620Z,92.41
2022-10-03T06:41:19.575Z,92.30
2022-10-03T06:42:19.572Z,92.30
2022-10-03T06:43:19.634Z,92.30
2022-10-03T06:44:19.553Z,92.20
2022-10-03T06:45:19.557Z,92.10
2022-10-03T06:46:19.575Z,92.20
2022-10-03T06:47:19.511Z,92.10
2022-10-03T06:48:19.507Z,92.10
2022-10-03T06:49:19.505Z,92.20
2022-10-03T06:50:19.495Z,92.20
2022-10-03T06:51:19.488Z,92.00
2022-10-03T06:52:19.461Z,91.89
2022-10-03T06:53:19.462Z,91.89
2022-10-03T06:54:19.440Z,91.69
2022-10-03T06:55:19.457Z,91.59
2022-10-03T06:56:19.424Z,91.59
2022-10-03T06:57:19.403Z,91.59
2022-10-03T06:58:19.411Z,91.69
2022-10-03T06:59:19.378Z,91.49
2022-10-03T07:00:19.376Z,91.35
2022-10-03T07:01:19.394Z,91.24
2022-10-03T07:02:19.416Z,91.18
2022-10-03T07:03:19.354Z,91.14
2022-10-03T07:04:19.343Z,90.94
2022-10-03T07:05:19.330Z,90.83
2022-10-03T07:06:19.309Z,90.73
2022-10-03T07:07:19.299Z,90.73
2022-10-03T07:08:19.284Z,90.73
2022-10-03T07:09:19.295Z,90.83
2022-10-03T07:10:19.269Z,90.73
2022-10-03T07:11:19.255Z,90.73
2022-10-03T07:12:19.240Z,90.63
2022-10-03T07:13:19.238Z,90.63
2022-10-03T07:14:19.225Z,90.63
2022-10-03T07:15:19.230Z,90.53
2022-10-03T07:16:27.069Z,90.42
2022-10-03T07:17:19.228Z,90.28
2022-10-03T07:18:19.173Z,90.38
2022-10-03T07:19:19.173Z,90.28
2022-10-03T07:20:19.170Z,90.38
2022-10-03T07:21:19.139Z,90.28
2022-10-03T07:22:19.132Z,90.28
2022-10-03T07:23:19.129Z,90.28
2022-10-03T07:24:19.112Z,90.28
2022-10-03T07:25:19.116Z,90.18
2022-10-03T07:26:19.108Z,90.28
2022-10-03T07:27:19.101Z,90.08
2022-10-03T07:28:19.114Z,89.97
2022-10-03T07:29:19.088Z,89.87
2022-10-03T07:30:19.048Z,89.87
2022-10-03T07:31:19.118Z,89.77
2022-10-03T07:32:19.055Z,89.67
2022-10-03T07:33:19.011Z,89.57
2022-10-03T07:34:19.007Z,89.57
2022-10-03T07:35:18.995Z,89.47
2022-10-03T07:36:18.976Z,89.47
2022-10-03T07:37:19.006Z,89.32
2022-10-03T07:38:18.962Z,89.32
2022-10-03T07:39:18.957Z,88.92
2022-10-03T07:40:18.932Z,88.71
2022-10-03T07:41:18.935Z,88.40
2022-10-03T07:42:19.045Z,88.51
2022-10-03T07:43:18.927Z,88.61
2022-10-03T07:44:19.119Z,88.61
2022-10-03T07:45:18.884Z,88.71
2022-10-03T07:46:18.912Z,88.51
2022-10-03T07:47:18.871Z,88.40
2022-10-03T07:48:18.856Z,88.40
2022-10-03T07:49:18.905Z,88.40
2022-10-03T07:50:18.843Z,88.31
2022-10-03T07:51:18.816Z,88.31
2022-10-03T07:52:18.804Z,88.10
2022-10-03T07:53:18.801Z,88.06
2022-10-03T07:54:18.782Z,87.85
2022-10-03T07:55:18.799Z,87.85
2022-10-03T07:56:18.771Z,87.85
2022-10-03T07:57:18.762Z,87.65
2022-10-03T07:58:18.739Z,87.65
2022-10-03T07:59:18.736Z,87.65
2022-10-03T08:00:18.723Z,87.14
2022-10-03T08:01:18.723Z,87.35
2022-10-03T08:02:18.842Z,87.04
2022-10-03T08:03:18.764Z,87.04
2022-10-03T08:04:18.670Z,86.94
2022-10-03T08:05:18.674Z,86.94
2022-10-03T08:06:18.650Z,86.94
2022-10-03T08:07:18.704Z,86.53
2022-10-03T08:08:18.644Z,86.53
2022-10-03T08:09:18.619Z,86.53
2022-10-03T08:10:18.614Z,86.53
2022-10-03T08:11:18.602Z,86.53
2022-10-03T08:12:18.597Z,86.63
2022-10-03T08:13:18.583Z,86.74
2022-10-03T08:14:18.586Z,86.33
2022-10-03T08:15:18.554Z,86.33
2022-10-03T08:16:18.644Z,86.43
2022-10-03T08:17:18.541Z,86.33
2022-10-03T08:18:18.522Z,85.92
2022-10-03T08:19:18.535Z,85.92
2022-10-03T08:20:18.496Z,85.72
2022-10-03T08:21:18.492Z,85.51
2022-10-03T08:22:18.488Z,85.47
2022-10-03T08:23:18.472Z,85.68
2022-10-03T08:24:18.469Z,85.78
2022-10-03T08:25:18.450Z,85.78
2022-10-03T08:26:18.435Z,85.68
2022-10-03T08:27:18.423Z,85.43
2022-10-03T08:28:18.483Z,85.43
2022-10-03T08:29:18.411Z,85.53
2022-10-03T08:30:18.432Z,85.43
2022-10-03T08:31:18.409Z,84.11
2022-10-03T08:32:18.396Z,83.81
2022-10-03T08:33:18.368Z,83.81
2022-10-03T08:34:18.353Z,83.81
2022-10-03T08:35:18.354Z,83.91
2022-10-03T08:36:18.324Z,83.56
2022-10-03T08:37:18.313Z,83.46
2022-10-03T08:38:18.310Z,83.46
2022-10-03T08:39:18.294Z,83.36
2022-10-03T08:40:18.290Z,83.26
2022-10-03T08:41:18.283Z,83.15
2022-10-03T08:42:18.258Z,83.15
2022-10-03T08:43:18.253Z,83.15
2022-10-03T08:44:18.235Z,83.15
2022-10-03T08:45:18.256Z,82.45
2022-10-03T08:46:19.909Z,82.54
2022-10-03T08:47:18.215Z,82.65
2022-10-03T08:48:18.190Z,82.65
2022-10-03T08:49:18.206Z,82.34
2022-10-03T08:50:18.174Z,82.34
2022-10-03T08:51:18.208Z,82.40
2022-10-03T08:52:18.169Z,82.40
2022-10-03T08:53:18.143Z,82.31
2022-10-03T08:54:18.131Z,82.31
2022-10-03T08:55:18.117Z,82.00
2022-10-03T08:56:18.105Z,82.10
2022-10-03T08:57:18.131Z,81.90
2022-10-03T08:58:18.113Z,81.90
2022-10-03T08:59:18.088Z,82.00
2022-10-03T09:00:18.066Z,82.20
2022-10-03T09:01:18.113Z,82.31
2022-10-03T09:02:18.176Z,82.40
2022-10-03T09:03:33.436Z,82.31
2022-10-03T09:04:18.032Z,82.40
2022-10-03T09:05:18.014Z,82.51
2022-10-03T09:06:18.004Z,82.51
2022-10-03T09:07:19.124Z,81.90
2022-10-03T09:08:18.004Z,81.70
2022-10-03T09:09:17.998Z,81.79
2022-10-03T09:10:17.971Z,81.86
2022-10-03T09:11:17.946Z,81.56
2022-10-03T09:12:17.937Z,81.45
2022-10-03T09:13:17.934Z,81.45
2022-10-03T09:14:17.935Z,81.35
2022-10-03T09:15:17.920Z,80.03
2022-10-03T09:16:18.806Z,79.93
2022-10-03T09:17:17.886Z,79.93
2022-10-03T09:18:17.877Z,79.93
2022-10-03T09:19:17.883Z,79.93
2022-10-03T09:20:17.988Z,80.03
2022-10-03T09:21:17.902Z,79.72
2022-10-03T09:22:17.831Z,79.63
2022-10-03T09:23:17.847Z,79.63
2022-10-03T09:24:17.811Z,79.83
2022-10-03T09:25:17.801Z,80.03
2022-10-03T09:26:17.823Z,80.03
2022-10-03T09:27:17.873Z,79.69
2022-10-03T09:28:20.008Z,79.49
2022-10-03T09:29:17.801Z,79.38
2022-10-03T09:30:17.817Z,79.08
2022-10-03T09:31:17.793Z,78.67
2022-10-03T09:32:17.755Z,78.37
2022-10-03T09:33:17.732Z,78.67
2022-10-03T09:34:17.711Z,78.84
2022-10-03T09:35:17.698Z,78.94
2022-10-03T09:36:17.690Z,78.64
2022-10-03T09:37:17.673Z,78.84
2022-10-03T09:38:17.679Z,79.04
2022-10-03T09:39:17.699Z,78.74
2022-10-03T09:40:17.638Z,78.44
2022-10-03T09:41:17.626Z,78.53
2022-10-03T09:42:17.617Z,78.33
2022-10-03T09:43:17.607Z,78.03
2022-10-03T09:44:17.600Z,78.03
2022-10-03T09:45:17.848Z,77.93
2022-10-03T09:46:17.625Z,77.83
2022-10-03T09:47:17.568Z,77.62
2022-10-03T09:48:17.546Z,77.52
2022-10-03T09:49:17.546Z,77.83
2022-10-03T09:50:17.535Z,77.93
2022-10-03T09:51:17.520Z,78.13
2022-10-03T09:52:17.507Z,77.89
2022-10-03T09:53:17.502Z,77.79
2022-10-03T09:54:17.478Z,77.79
2022-10-03T09:55:17.550Z,77.69
2022-10-03T09:56:17.550Z,77.69
2022-10-03T09:57:22.048Z,77.18
2022-10-03T09:58:17.440Z,76.78
2022-10-03T09:59:17.435Z,76.87
2022-10-03T10:00:17.438Z,76.87
2022-10-03T10:01:17.489Z,76.67
2022-10-03T10:02:17.430Z,76.78
2022-10-03T10:03:17.380Z,76.67
2022-10-03T10:04:28.296Z,77.08
2022-10-03T10:05:17.368Z,77.18
2022-10-03T10:06:20.439Z,76.67
2022-10-03T10:07:17.371Z,76.47
2022-10-03T10:08:17.330Z,76.57
2022-10-03T10:09:17.320Z,76.78
2022-10-03T10:10:17.324Z,76.98
2022-10-03T10:11:17.302Z,76.98
2022-10-03T10:12:17.293Z,76.81
2022-10-03T10:13:17.295Z,76.91
2022-10-03T10:14:17.275Z,77.01
2022-10-03T10:15:17.256Z,77.32
2022-10-03T10:16:17.289Z,77.52
2022-10-03T10:17:17.230Z,77.59
2022-10-03T10:18:17.242Z,77.69
2022-10-03T10:19:17.225Z,77.38
2022-10-03T10:20:17.192Z,77.08
2022-10-03T10:21:17.196Z,77.08
2022-10-03T10:22:17.200Z,76.57
2022-10-03T10:23:17.172Z,76.27
2022-10-03T10:24:17.178Z,76.37
2022-10-03T10:25:17.160Z,76.57
2022-10-03T10:26:17.147Z,76.64
2022-10-03T10:27:17.127Z,76.54
2022-10-03T10:28:17.198Z,76.23
2022-10-03T10:29:17.103Z,76.33
2022-10-03T10:30:17.100Z,76.50
2022-10-03T10:31:17.164Z,76.50
2022-10-03T10:32:21.382Z,76.50
2022-10-03T10:33:17.059Z,76.46
2022-10-03T10:34:17.053Z,76.46
2022-10-03T10:35:17.048Z,76.16
2022-10-03T10:36:17.032Z,75.35
2022-10-03T10:37:17.051Z,75.31
2022-10-03T10:38:17.025Z,74.64
2022-10-03T10:39:16.993Z,74.71
2022-10-03T10:40:17.008Z,74.81
2022-10-03T10:41:16.974Z,75.01
2022-10-03T10:42:16.959Z,74.40
2022-10-03T10:43:16.983Z,73.46
2022-10-03T10:44:16.945Z,72.72
2022-10-03T10:45:16.933Z,72.61
2022-10-03T10:46:16.949Z,72.61
2022-10-03T10:47:16.933Z,71.91
2022-10-03T10:48:16.887Z,71.60
2022-10-03T10:49:16.915Z,71.91
2022-10-03T10:50:16.885Z,72.01
2022-10-03T10:51:16.864Z,72.04
2022-10-03T10:52:16.850Z,72.11
2022-10-03T10:53:16.847Z,72.44
2022-10-03T10:54:16.832Z,72.55
2022-10-03T10:55:16.830Z,72.61
2022-10-03T10:56:16.834Z,72.75
2022-10-03T10:57:16.803Z,72.95
2022-10-03T10:58:16.786Z,73.25
2022-10-03T10:59:16.786Z,73.46
2022-10-03T11:00:16.772Z,73.76
2022-10-03T11:01:16.817Z,73.56
2022-10-03T11:02:16.749Z,73.86
2022-10-03T11:03:16.748Z,73.76
2022-10-03T11:04:16.767Z,74.16
2022-10-03T11:05:16.723Z,73.96
2022-10-03T11:06:16.721Z,74.16
2022-10-03T11:07:16.695Z,74.47
2022-10-03T11:08:16.679Z,74.57
2022-10-03T11:09:16.672Z,74.77
2022-10-03T11:10:16.658Z,74.77
2022-10-03T11:11:16.651Z,74.87
2022-10-03T11:12:16.647Z,74.87
2022-10-03T11:13:16.629Z,74.57
2022-10-03T11:14:16.624Z,74.67
2022-10-03T11:15:16.602Z,74.37
2022-10-03T11:16:16.659Z,74.37
2022-10-03T11:17:16.610Z,74.37
2022-10-03T11:18:16.569Z,74.37
2022-10-03T11:19:16.566Z,74.37
2022-10-03T11:20:16.548Z,74.27
2022-10-03T11:21:16.549Z,74.27
2022-10-03T11:22:16.538Z,74.37
2022-10-03T11:23:16.525Z,74.57
2022-10-03T11:24:16.509Z,74.77
2022-10-03T11:25:16.490Z,74.84
2022-10-03T11:26:16.491Z,74.94
2022-10-03T11:27:16.480Z,75.04
2022-10-03T11:28:18.828Z,75.34
2022-10-03T11:29:16.463Z,75.55
2022-10-03T11:30:16.441Z,75.65
2022-10-03T11:31:16.509Z,75.75
2022-10-03T11:32:16.425Z,76.05
2022-10-03T11:33:16.411Z,76.15
2022-10-03T11:34:16.411Z,76.26
2022-10-03T11:35:16.404Z,76.46
2022-10-03T11:36:16.372Z,76.46
2022-10-03T11:37:16.368Z,76.56
2022-10-03T11:38:16.365Z,76.79
2022-10-03T11:39:16.356Z,77.00
2022-10-03T11:40:16.357Z,77.20
2022-10-03T11:41:16.331Z,77.10
2022-10-03T11:42:16.321Z,77.00
2022-10-03T11:43:16.313Z,77.34
2022-10-03T11:44:16.289Z,77.44
2022-10-03T11:45:16.304Z,77.75
2022-10-03T11:46:16.346Z,77.95
2022-10-03T11:47:16.346Z,78.35
2022-10-03T11:48:16.252Z,78.66
2022-10-03T11:49:16.242Z,78.75
2022-10-03T11:50:16.247Z,79.36
2022-10-03T11:51:16.218Z,79.67
2022-10-03T11:52:16.227Z,79.71
2022-10-03T11:53:16.231Z,79.91
2022-10-03T11:54:30.614Z,79.97
2022-10-03T11:55:16.180Z,80.18
2022-10-03T11:56:16.167Z,80.27
2022-10-03T11:57:16.157Z,80.18
2022-10-03T11:58:16.164Z,80.18
2022-10-03T11:59:16.136Z,80.13
2022-10-03T12:00:16.117Z,79.93
2022-10-03T12:01:16.107Z,79.93
2022-10-03T12:02:16.174Z,79.63
2022-10-03T12:03:16.182Z,79.53
2022-10-03T12:04:16.097Z,79.63
2022-10-03T12:05:16.068Z,79.73
2022-10-03T12:06:16.054Z,79.83
2022-10-03T12:07:17.670Z,79.93
2022-10-03T12:08:16.051Z,80.13
2022-10-03T12:09:16.034Z,80.34
2022-10-03T12:10:16.020Z,80.74
2022-10-03T12:11:16.003Z,81.55
2022-10-03T12:12:15.988Z,82.16
2022-10-03T12:13:15.977Z,82.46
2022-10-03T12:14:15.966Z,82.67
2022-10-03T12:15:15.972Z,83.21
2022-10-03T12:16:16.029Z,83.41
2022-10-03T12:17:15.987Z,83.88
2022-10-03T12:18:15.936Z,83.98
2022-10-03T12:19:15.914Z,84.19
2022-10-03T12:20:15.911Z,84.08
2022-10-03T12:21:20.947Z,84.25
2022-10-03T12:22:15.884Z,83.74
2022-10-03T12:23:15.870Z,83.44
2022-10-03T12:24:15.858Z,82.99
2022-10-03T12:25:15.851Z,82.89
2022-10-03T12:26:15.866Z,82.65
2022-10-03T12:27:15.844Z,82.04
2022-10-03T12:28:15.829Z,81.54
2022-10-03T12:29:15.815Z,80.79
2022-10-03T12:30:15.797Z,79.99
2022-10-03T12:31:18.998Z,78.77
2022-10-03T12:32:15.867Z,78.53
2022-10-03T12:33:15.759Z,78.74
2022-10-03T12:34:15.759Z,78.03
2022-10-03T12:35:15.755Z,77.93
2022-10-03T12:36:15.756Z,76.82
2022-10-03T12:37:15.752Z,76.72
2022-10-03T12:38:15.713Z,76.15
2022-10-03T12:39:15.696Z,75.95
2022-10-03T12:40:15.680Z,76.25
2022-10-03T12:41:15.674Z,76.25
2022-10-03T12:42:15.684Z,75.95
2022-10-03T12:43:15.654Z,76.18
2022-10-03T12:44:15.634Z,76.48
2022-10-03T12:45:15.646Z,76.89
2022-10-03T12:46:15.652Z,76.72
2022-10-03T12:47:15.607Z,76.93
2022-10-03T12:48:15.698Z,77.13
2022-10-03T12:49:15.588Z,77.33
2022-10-03T12:50:15.576Z,77.33
2022-10-03T12:51:15.569Z,77.29
2022-10-03T12:52:15.544Z,77.09
2022-10-03T12:53:15.553Z,76.89